Pinedale, WY

12:42 AM MST on February 24, 2017 (GMT -0700)
Wenz

Weather History for KPNA - April, 2013

Change the Weather History Date:

Monday, April 8, 2013

  Actual Average (KBPI) Record (KBPI)
Temperature  
Mean Temperature 32 °F -  
Max Temperature 42 °F 45 °F 67 °F (1988)
Min Temperature 21 °F 19 °F 0 °F (1980)
Degree Days  
Heating Degree Days 34    
Moisture  
Dew Point 24 °F    
Average Humidity 80    
Maximum Humidity 100    
Minimum Humidity 47    
Precipitation  
Precipitation 0.00 in - - ()
Sea Level Pressure  
Sea Level Pressure 29.59 in    
Wind  
Wind Speed 7 mph (NNE)    
Max Wind Speed 31 mph    
Max Gust Speed 38 mph    
Visibility 8 miles    
Events Fog , Snow    
Averages and records for this station are not official NWS values.
T = Trace of Precipitation, MM = Missing Value Source: NWS Daily Summary

Daily Weather History Graph

Daily Weather History Graph

Search for Another Location

Airport or City:

Trip Planner

Search our weather history database for the weather conditions in past years. The results will help you decide how hot, cold, wet, or windy it might be!

Date:

Astronomy

Apr. 08, 2013 Rise Set
Actual Time 6:48 AM MDT 7:53 PM MDT
Civil Twilight 6:19 AM MDT 8:22 PM MDT
Nautical Twilight 5:45 AM MDT 8:57 PM MDT
Astronomical Twilight 5:09 AM MDT 9:33 PM MDT
Moon 5:42 AM MDT (4/8) 6:30 PM MDT (4/8)
Length of Visible Light 14h 02m
Length of Day
13h 05m
Waning Crescent, 3% of the Moon is Illuminated
Apr 8
Waning Crescent
Apr 10
New
Apr 18
First Quarter
Apr 25
Full
May 2
Last Quarter

Hourly Weather History & Observations

Time (MDT) Temp. Windchill Dew Point Humidity Pressure Visibility Wind Dir Wind Speed Gust Speed Precip Events Conditions
12:15 AM 28.4 °F 23.3 °F 28.4 °F 100% 29.72 in 10.0 mi North 4.6 mph - N/A   Mostly Cloudy
12:35 AM 26.6 °F - 26.6 °F 100% 29.71 in 10.0 mi Calm Calm - N/A   Mostly Cloudy
12:55 AM 26.6 °F 21.2 °F 26.6 °F 100% 29.71 in 0.5 mi SW 4.6 mph - N/A Fog Light Freezing Fog
1:15 AM 23.0 °F 18.4 °F 23.0 °F 100% 29.69 in 0.2 mi WNW 3.5 mph - N/A Fog Light Freezing Fog
1:35 AM 23.0 °F - 23.0 °F 100% 29.69 in 0.5 mi Calm Calm - N/A Fog Light Freezing Fog
1:55 AM 21.2 °F - 21.2 °F 100% 29.67 in 1.0 mi Calm Calm - N/A   Mostly Cloudy
2:15 AM 23.0 °F - 23.0 °F 100% 29.67 in 4.0 mi Calm Calm - N/A   Scattered Clouds
2:35 AM 23.0 °F 17.0 °F 23.0 °F 100% 29.67 in 10.0 mi West 4.6 mph - N/A   Overcast
2:55 AM 24.8 °F 20.5 °F 24.8 °F 100% 29.66 in 10.0 mi North 3.5 mph - N/A   Overcast
3:15 AM 26.6 °F 20.0 °F 26.6 °F 100% 29.64 in 10.0 mi North 5.8 mph - N/A   Overcast
3:35 AM 24.8 °F 17.9 °F 24.8 °F 100% 29.65 in 10.0 mi NW 5.8 mph - N/A   Overcast
3:55 AM 26.6 °F 22.6 °F 26.6 °F 100% 29.64 in 10.0 mi West 3.5 mph - N/A   Overcast
4:15 AM 26.6 °F 22.6 °F 26.6 °F 100% 29.63 in 10.0 mi NW 3.5 mph - N/A   Overcast
4:35 AM 24.8 °F 20.5 °F 24.8 °F 100% 29.63 in 10.0 mi West 3.5 mph - N/A   Overcast
4:55 AM 26.6 °F 22.6 °F 26.6 °F 100% 29.63 in 10.0 mi West 3.5 mph - N/A   Overcast
5:15 AM 26.6 °F - 26.6 °F 100% 29.62 in 10.0 mi Calm Calm - N/A   Overcast
5:35 AM 26.6 °F 22.6 °F 26.6 °F 100% 29.62 in 10.0 mi WNW 3.5 mph - N/A   Overcast
5:55 AM 26.6 °F 19.1 °F 26.6 °F 100% 29.61 in 10.0 mi WNW 6.9 mph - N/A   Overcast
6:15 AM 26.6 °F 19.1 °F 26.6 °F 100% 29.61 in 10.0 mi West 6.9 mph - N/A   Overcast
6:35 AM 26.6 °F 20.0 °F 26.6 °F 100% 29.60 in 10.0 mi WNW 5.8 mph - N/A   Overcast
6:55 AM 28.4 °F 21.2 °F 28.4 °F 100% 29.60 in 10.0 mi West 6.9 mph - N/A   Overcast
7:15 AM 28.4 °F 22.2 °F 28.4 °F 100% 29.61 in 10.0 mi West 5.8 mph - N/A   Overcast
7:35 AM 30.2 °F 26.7 °F 28.4 °F 93% 29.61 in 10.0 mi East 3.5 mph - N/A   Overcast
7:55 AM 30.2 °F 25.4 °F 28.4 °F 93% 29.61 in 10.0 mi East 4.6 mph - N/A   Overcast
8:15 AM 30.2 °F 25.4 °F 30.2 °F 100% 29.62 in 2.0 mi ESE 4.6 mph - N/A Snow Light Snow
8:35 AM 28.4 °F 21.2 °F 28.4 °F 100% 29.62 in 3.0 mi ESE 6.9 mph - N/A Snow Light Snow
8:55 AM 28.4 °F 24.6 °F 28.4 °F 100% 29.62 in 3.0 mi SE 3.5 mph - N/A Snow Light Snow
9:15 AM 28.4 °F - 28.4 °F 100% 29.62 in 3.0 mi Calm Calm - N/A   Overcast
9:35 AM 28.4 °F - 28.4 °F 100% 29.62 in 0.8 mi Calm Calm - N/A Snow Light Snow
9:55 AM 30.2 °F - 30.2 °F 100% 29.61 in 0.5 mi Calm Calm - N/A Snow Snow
10:15 AM 30.2 °F 26.7 °F 30.2 °F 100% 29.61 in 0.5 mi NNE 3.5 mph - N/A Snow Snow
10:35 AM 32.0 °F 26.4 °F 32.0 °F 100% 29.59 in 1.0 mi NE 5.8 mph - N/A Snow Light Snow
10:55 AM 32.0 °F 27.5 °F 32.0 °F 100% 29.59 in 0.5 mi NE 4.6 mph - N/A Snow Snow
11:15 AM 32.0 °F 26.4 °F 32.0 °F 100% 29.58 in 0.5 mi NNE 5.8 mph - N/A Snow Snow
11:35 AM 32.0 °F 23.0 °F 32.0 °F 100% 29.58 in 0.5 mi NE 11.5 mph 16.1 mph N/A Snow Light Snow
11:55 AM 32.0 °F 23.0 °F 32.0 °F 100% 29.57 in 0.8 mi NE 11.5 mph - N/A Snow Light Snow
12:15 PM 32.0 °F 27.5 °F 30.2 °F 93% 29.55 in 2.5 mi North 4.6 mph - N/A Snow Light Snow
12:35 PM 32.0 °F 26.4 °F 30.2 °F 93% 29.53 in 5.0 mi NNW 5.8 mph - N/A Snow Light Snow
12:55 PM 35.6 °F 28.0 °F 28.4 °F 75% 29.51 in 10.0 mi NE 10.4 mph - N/A   Overcast
1:15 PM 37.4 °F 28.9 °F 28.4 °F 70% 29.49 in 10.0 mi NE 13.8 mph 19.6 mph N/A   Overcast
1:35 PM 39.2 °F 32.5 °F 26.6 °F 61% 29.48 in 10.0 mi NE 10.4 mph 16.1 mph N/A   Overcast
1:55 PM 39.2 °F 31.6 °F 26.6 °F 61% 29.49 in 10.0 mi ENE 12.7 mph 18.4 mph N/A   Overcast
2:15 PM 37.4 °F 31.4 °F 26.6 °F 65% 29.50 in 10.0 mi ENE 8.1 mph 20.7 mph N/A   Overcast
2:35 PM 37.4 °F - 28.4 °F 70% 29.51 in 10.0 mi Calm Calm - N/A   Overcast
2:55 PM 41.0 °F 37.1 °F 28.4 °F 61% 29.51 in 10.0 mi East 5.8 mph - N/A   Overcast
3:15 PM 39.2 °F 32.5 °F 24.8 °F 56% 29.50 in 10.0 mi NNE 10.4 mph 16.1 mph N/A   Overcast
3:35 PM 41.0 °F 33.9 °F 26.6 °F 57% 29.49 in 10.0 mi NE 12.7 mph 18.4 mph N/A   Scattered Clouds
3:55 PM 42.8 °F 35.1 °F 28.4 °F 57% 29.48 in 10.0 mi NE 16.1 mph 19.6 mph N/A   Mostly Cloudy
4:15 PM 41.0 °F 31.9 °F 26.6 °F 57% 29.48 in 10.0 mi NE 19.6 mph 28.8 mph N/A   Overcast
4:35 PM 39.2 °F 29.0 °F 24.8 °F 56% 29.48 in 10.0 mi NE 21.9 mph 27.6 mph N/A   Overcast
4:55 PM 37.4 °F 26.9 °F 23.0 °F 56% 29.49 in 10.0 mi NE 20.7 mph 28.8 mph N/A   Overcast
5:15 PM 37.4 °F 26.1 °F 21.2 °F 52% 29.50 in 10.0 mi NE 24.2 mph 31.1 mph N/A   Overcast
5:35 PM 35.6 °F 24.0 °F 21.2 °F 56% 29.51 in 10.0 mi ENE 23.0 mph 29.9 mph N/A   Overcast
5:55 PM 33.8 °F 23.9 °F 19.4 °F 56% 29.53 in 10.0 mi NE 15.0 mph 24.2 mph N/A   Overcast
6:15 PM 33.8 °F 23.2 °F 19.4 °F 56% 29.53 in 10.0 mi NE 17.3 mph 25.3 mph N/A   Overcast
6:35 PM 33.8 °F 22.5 °F 17.6 °F 52% 29.53 in 10.0 mi NE 19.6 mph 29.9 mph N/A   Overcast
6:55 PM 32.0 °F 21.2 °F 17.6 °F 55% 29.54 in 10.0 mi NE 16.1 mph 26.5 mph N/A   Mostly Cloudy
7:15 PM 32.0 °F 20.1 °F 15.8 °F 51% 29.54 in 10.0 mi NE 19.6 mph 29.9 mph N/A   Overcast
7:35 PM 30.2 °F 14.9 °F 19.4 °F 64% 29.54 in 10.0 mi NE 31.1 mph 38.0 mph N/A   Overcast
7:55 PM 30.2 °F 16.2 °F 19.4 °F 64% 29.55 in 10.0 mi NE 25.3 mph 29.9 mph N/A   Overcast
8:15 PM 30.2 °F 19.3 °F 14.0 °F 51% 29.58 in 10.0 mi NE 15.0 mph 25.3 mph N/A   Overcast
8:35 PM 30.2 °F 17.1 °F 15.8 °F 55% 29.59 in 10.0 mi NNE 21.9 mph 28.8 mph N/A   Overcast
8:55 PM 30.2 °F 17.8 °F 14.0 °F 51% 29.59 in 10.0 mi NNE 19.6 mph 26.5 mph N/A   Overcast
9:15 PM 30.2 °F 15.9 °F 15.8 °F 55% 29.59 in 10.0 mi NNE 26.5 mph 31.1 mph N/A   Overcast
9:35 PM 30.2 °F 17.1 °F 14.0 °F 51% 29.59 in 10.0 mi NNE 21.9 mph 27.6 mph N/A   Overcast
9:55 PM 30.2 °F 18.9 °F 12.2 °F 47% 29.61 in 10.0 mi NE 16.1 mph 24.2 mph N/A   Overcast
10:15 PM 28.4 °F 15.4 °F 14.0 °F 55% 29.62 in 10.0 mi NE 19.6 mph 26.5 mph N/A   Overcast
10:35 PM 28.4 °F 15.4 °F 15.8 °F 59% 29.64 in 10.0 mi NE 19.6 mph 26.5 mph N/A   Overcast
10:55 PM 23.0 °F 8.0 °F 21.2 °F 93% 29.65 in 2.0 mi NNE 20.7 mph 26.5 mph N/A Snow Light Snow
11:15 PM 26.6 °F 16.8 °F 17.6 °F 69% 29.65 in 10.0 mi NE 10.4 mph - N/A   Overcast
11:35 PM 26.6 °F 19.1 °F 14.0 °F 59% 29.66 in 10.0 mi ENE 6.9 mph 12.7 mph N/A   Overcast
11:55 PM 28.4 °F 22.2 °F 14.0 °F 55% 29.67 in 10.0 mi ENE 5.8 mph - N/A   Overcast